John_paul K — PBHY — position and weather

sailwx.info

Track history (hours):
 
Tides and Currents Weather Stations Pressure Air Temp Water Temp Dewpoint Dewpoint Depression Visibility Wind Speed Wind Dir Waves Ship Positions

John_paul K

Last reported at 2017-Feb-21 04:32 UTC. Time now 2017-Feb-21 05:28 UTC.
Position N 54°23' E 018°40'.

Length 90 m; draft 4.3 m.

Type: Cargo ship. MMSI: 245181000.

Date/timePositionNaut miles runAvg speedWind from/ knotsBaromVisibWave heightAir tempDewpointWater temp
2017-Feb-21 04:32N 54°23' E 018°40'0 0.0
2017-Feb-21 03:32N 54°23' E 018°40'0 0.0
2017-Feb-21 02:32N 54°23' E 018°40'0 0.0
2017-Feb-21 01:32N 54°23' E 018°40'0 0.0
2017-Feb-21 00:32N 54°23' E 018°40'0 0.0
2017-Feb-20 23:32N 54°23' E 018°40'0 0.0
2017-Feb-20 22:32N 54°23' E 018°40'0 0.0
2017-Feb-20 21:32N 54°23' E 018°40'0 0.0
2017-Feb-20 20:32N 54°23' E 018°40'0 0.0
2017-Feb-20 19:32N 54°23' E 018°40'0 0.0
2017-Feb-20 18:32N 54°23' E 018°40'0 0.0
2017-Feb-20 17:32N 54°23' E 018°40'0 0.0
2017-Feb-20 16:32N 54°23' E 018°40'0 0.0
2017-Feb-20 15:32N 54°23' E 018°40'0 0.0
2017-Feb-20 14:31N 54°23' E 018°40'0 0.0
2017-Feb-20 13:31N 54°23' E 018°40'0 0.0
2017-Feb-20 12:31N 54°23' E 018°40'0 0.0
2017-Feb-20 11:31N 54°23' E 018°40'0 0.0
2017-Feb-20 10:31N 54°23' E 018°40'1 1.2
2017-Feb-20 09:34N 54°24' E 018°40'6 6.4
2017-Feb-20 08:34N 54°30' E 018°45'1111.4
2017-Feb-20 07:34N 54°40' E 018°56'9 9.4
2017-Feb-20 06:34N 54°49' E 018°53'1110.7
2017-Feb-20 05:34N 54°55' E 018°38'1110.9
2017-Feb-20 04:34N 54°56' E 018°19'15410.1
2017-Feb-19 13:17N 53°46' E 014°24'811.2
2017-Feb-19 12:34N 53°40' E 014°32'1010.3
2017-Feb-19 11:33N 53°30' E 014°37'6 5.6
2017-Feb-19 10:33N 53°24' E 014°37'0 0.0
2017-Feb-19 09:24N 53°24' E 014°37'0 0.0
2017-Feb-19 07:24N 53°24' E 014°37'0 0.0
2017-Feb-19 06:27N 53°24' E 014°37'0 0.0
2017-Feb-19 05:27N 53°24' E 014°37'0 0.0
2017-Feb-19 04:27N 53°24' E 014°37'0 0.0
2017-Feb-19 03:33N 53°24' E 014°37'0 0.0
2017-Feb-19 02:33N 53°24' E 014°37'0 0.0
2017-Feb-19 01:30N 53°24' E 014°37'0 0.0
2017-Feb-19 00:33N 53°24' E 014°37'0 0.0
2017-Feb-18 23:33N 53°24' E 014°37'0 0.0
2017-Feb-18 22:33N 53°24' E 014°37'0 0.0
2017-Feb-18 21:33N 53°24' E 014°37'0 0.0
2017-Feb-18 20:32N 53°24' E 014°37'0 0.0
2017-Feb-18 19:32N 53°24' E 014°37'0 0.0
2017-Feb-18 18:32N 53°24' E 014°37'0 0.0
2017-Feb-18 17:26N 53°24' E 014°37'0 0.0
2017-Feb-18 16:32N 53°24' E 014°37'0 0.0
2017-Feb-18 15:26N 53°24' E 014°37'0 0.0
2017-Feb-18 14:29N 53°24' E 014°37'0 0.0
2017-Feb-18 13:32N 53°24' E 014°37'0 0.0
2017-Feb-18 12:32N 53°24' E 014°37'0 0.0
2017-Feb-18 05:17N 53°24' E 014°37'0 0.0
2017-Feb-18 04:23N 53°24' E 014°37'0 0.0
2017-Feb-18 03:29N 53°24' E 014°37'0 0.0
2017-Feb-18 02:23N 53°24' E 014°37'0 0.0
2017-Feb-18 00:23N 53°24' E 014°37'0 0.0
2017-Feb-17 23:29N 53°24' E 014°37'0 0.0
2017-Feb-17 22:29N 53°24' E 014°37'0 0.0
2017-Feb-17 21:29N 53°24' E 014°37'0 0.0
2017-Feb-17 20:32N 53°24' E 014°37'0 0.0
2017-Feb-17 19:29N 53°24' E 014°37'0 0.0
2017-Feb-17 18:29N 53°24' E 014°37'0 0.0
2017-Feb-17 16:29N 53°24' E 014°37'0 0.0
2017-Feb-17 15:32N 53°24' E 014°37'0 0.0
2017-Feb-17 14:22N 53°24' E 014°37'0 0.0
2017-Feb-17 11:22N 53°24' E 014°37'0 0.0
2017-Feb-17 10:28N 53°24' E 014°37'0 0.0
2017-Feb-17 08:31N 53°24' E 014°37'0 0.0
2017-Feb-17 07:31N 53°24' E 014°37'0 0.0
2017-Feb-17 06:31N 53°24' E 014°37'0 0.0
2017-Feb-17 05:31N 53°24' E 014°37'0 0.0
2017-Feb-17 04:28N 53°24' E 014°37'0 0.0
2017-Feb-17 03:31N 53°24' E 014°37'0 0.0
2017-Feb-17 02:31N 53°24' E 014°37'0 0.0
2017-Feb-17 01:31N 53°24' E 014°37'0 0.0
2017-Feb-17 00:28N 53°24' E 014°37'0 0.0
2017-Feb-16 23:32N 53°24' E 014°37'1 0.8
2017-Feb-16 22:34N 53°25' E 014°37'8 8.3
2017-Feb-16 21:33N 53°33' E 014°36'10 9.6
2017-Feb-16 20:33N 53°42' E 014°29'81 8.1
2017-Feb-16 10:31N 54°42' E 012°56'1010.3
2017-Feb-16 09:33N 54°40' E 012°40'1010.3
2017-Feb-16 08:33N 54°34' E 012°25'1010.2
2017-Feb-16 07:33N 54°27' E 012°13'1110.8
2017-Feb-16 06:33N 54°25' E 011°54'11 9.9
2017-Feb-16 05:26N 54°28' E 011°36'9 9.8
2017-Feb-16 04:33N 54°31' E 011°22'10 9.6
2017-Feb-16 03:33N 54°35' E 011°07'9 9.3
2017-Feb-16 02:33N 54°34' E 010°51'9 9.3
2017-Feb-16 01:33N 54°33' E 010°35'37 4.6
2017-Feb-15 17:30N 54°17' E 009°38'16 7.8
2017-Feb-15 15:24N 54°05' E 009°19'7 8.4
2017-Feb-15 14:33N 53°58' E 009°15'6 5.8
2017-Feb-15 13:33N 53°54' E 009°09'2 1.6
2017-Feb-15 12:33N 53°53' E 009°06'1 0.9
2017-Feb-15 11:33N 53°53' E 009°05'6 5.8
2017-Feb-15 10:33N 53°51' E 008°56'8 7.6
2017-Feb-15 09:33N 53°52' E 008°43'8 7.9
2017-Feb-15 08:33N 53°58' E 008°33'10 8.8
2017-Feb-15 07:24N 53°59' E 008°16'9 9.3
2017-Feb-15 06:29N 53°59' E 008°02'141 9.8
2017-Feb-14 16:04N 53°02' E 004°25'5 9.7
2017-Feb-14 15:32N 52°57' E 004°21'9 9.1
2017-Feb-14 14:33N 52°49' E 004°15'9 8.7
2017-Feb-14 13:34N 52°43' E 004°05'19 8.4
2017-Feb-14 11:14N 52°29' E 003°42'76 9.6
2017-Feb-14 03:24N 51°33' E 002°21'910.6
2017-Feb-14 02:32N 51°25' E 002°13'1010.5
2017-Feb-14 01:33N 51°16' E 002°05'1010.2
2017-Feb-14 00:34N 51°09' E 001°53'9 9.3
2017-Feb-13 23:34N 51°02' E 001°42'8 8.0
2017-Feb-13 22:34N 50°57' E 001°34'  
Track history (hours):
 
Tides and Currents Weather Stations Pressure Air Temp Water Temp Dewpoint Dewpoint Depression Visibility Wind Speed Wind Dir Waves Ship Positions

John_paul K

Last reported at 2017-Feb-21 04:32 UTC. Time now 2017-Feb-21 05:28 UTC.
Position N 54°23' E 018°40'.

Length 90 m; draft 4.3 m.

Type: Cargo ship. MMSI: 245181000.

Date/timePositionNaut miles runAvg speedWind from/ knotsBaromVisibWave heightAir tempDewpointWater temp
2017-Feb-21 04:32N 54°23' E 018°40'0 0.0
2017-Feb-21 03:32N 54°23' E 018°40'0 0.0
2017-Feb-21 02:32N 54°23' E 018°40'0 0.0
2017-Feb-21 01:32N 54°23' E 018°40'0 0.0
2017-Feb-21 00:32N 54°23' E 018°40'0 0.0
2017-Feb-20 23:32N 54°23' E 018°40'0 0.0
2017-Feb-20 22:32N 54°23' E 018°40'0 0.0
2017-Feb-20 21:32N 54°23' E 018°40'0 0.0
2017-Feb-20 20:32N 54°23' E 018°40'0 0.0
2017-Feb-20 19:32N 54°23' E 018°40'0 0.0
2017-Feb-20 18:32N 54°23' E 018°40'0 0.0
2017-Feb-20 17:32N 54°23' E 018°40'0 0.0
2017-Feb-20 16:32N 54°23' E 018°40'0 0.0
2017-Feb-20 15:32N 54°23' E 018°40'0 0.0
2017-Feb-20 14:31N 54°23' E 018°40'0 0.0
2017-Feb-20 13:31N 54°23' E 018°40'0 0.0
2017-Feb-20 12:31N 54°23' E 018°40'0 0.0
2017-Feb-20 11:31N 54°23' E 018°40'0 0.0
2017-Feb-20 10:31N 54°23' E 018°40'1 1.2
2017-Feb-20 09:34N 54°24' E 018°40'6 6.4
2017-Feb-20 08:34N 54°30' E 018°45'1111.4
2017-Feb-20 07:34N 54°40' E 018°56'9 9.4
2017-Feb-20 06:34N 54°49' E 018°53'1110.7
2017-Feb-20 05:34N 54°55' E 018°38'1110.9
2017-Feb-20 04:34N 54°56' E 018°19'15410.1
2017-Feb-19 13:17N 53°46' E 014°24'811.2
2017-Feb-19 12:34N 53°40' E 014°32'1010.3
2017-Feb-19 11:33N 53°30' E 014°37'6 5.6
2017-Feb-19 10:33N 53°24' E 014°37'0 0.0
2017-Feb-19 09:24N 53°24' E 014°37'0 0.0
2017-Feb-19 07:24N 53°24' E 014°37'0 0.0
2017-Feb-19 06:27N 53°24' E 014°37'0 0.0
2017-Feb-19 05:27N 53°24' E 014°37'0 0.0
2017-Feb-19 04:27N 53°24' E 014°37'0 0.0
2017-Feb-19 03:33N 53°24' E 014°37'0 0.0
2017-Feb-19 02:33N 53°24' E 014°37'0 0.0
2017-Feb-19 01:30N 53°24' E 014°37'0 0.0
2017-Feb-19 00:33N 53°24' E 014°37'0 0.0
2017-Feb-18 23:33N 53°24' E 014°37'0 0.0
2017-Feb-18 22:33N 53°24' E 014°37'0 0.0
2017-Feb-18 21:33N 53°24' E 014°37'0 0.0
2017-Feb-18 20:32N 53°24' E 014°37'0 0.0
2017-Feb-18 19:32N 53°24' E 014°37'0 0.0
2017-Feb-18 18:32N 53°24' E 014°37'0 0.0
2017-Feb-18 17:26N 53°24' E 014°37'0 0.0
2017-Feb-18 16:32N 53°24' E 014°37'0 0.0
2017-Feb-18 15:26N 53°24' E 014°37'0 0.0
2017-Feb-18 14:29N 53°24' E 014°37'0 0.0
2017-Feb-18 13:32N 53°24' E 014°37'0 0.0
2017-Feb-18 12:32N 53°24' E 014°37'0 0.0
2017-Feb-18 05:17N 53°24' E 014°37'0 0.0
2017-Feb-18 04:23N 53°24' E 014°37'0 0.0
2017-Feb-18 03:29N 53°24' E 014°37'0 0.0
2017-Feb-18 02:23N 53°24' E 014°37'0 0.0
2017-Feb-18 00:23N 53°24' E 014°37'0 0.0
2017-Feb-17 23:29N 53°24' E 014°37'0 0.0
2017-Feb-17 22:29N 53°24' E 014°37'0 0.0
2017-Feb-17 21:29N 53°24' E 014°37'0 0.0
2017-Feb-17 20:32N 53°24' E 014°37'0 0.0
2017-Feb-17 19:29N 53°24' E 014°37'0 0.0
2017-Feb-17 18:29N 53°24' E 014°37'0 0.0
2017-Feb-17 16:29N 53°24' E 014°37'0 0.0
2017-Feb-17 15:32N 53°24' E 014°37'0 0.0
2017-Feb-17 14:22N 53°24' E 014°37'0 0.0
2017-Feb-17 11:22N 53°24' E 014°37'0 0.0
2017-Feb-17 10:28N 53°24' E 014°37'0 0.0
2017-Feb-17 08:31N 53°24' E 014°37'0 0.0
2017-Feb-17 07:31N 53°24' E 014°37'0 0.0
2017-Feb-17 06:31N 53°24' E 014°37'0 0.0
2017-Feb-17 05:31N 53°24' E 014°37'0 0.0
2017-Feb-17 04:28N 53°24' E 014°37'0 0.0
2017-Feb-17 03:31N 53°24' E 014°37'0 0.0
2017-Feb-17 02:31N 53°24' E 014°37'0 0.0
2017-Feb-17 01:31N 53°24' E 014°37'0 0.0
2017-Feb-17 00:28N 53°24' E 014°37'0 0.0
2017-Feb-16 23:32N 53°24' E 014°37'1 0.8
2017-Feb-16 22:34N 53°25' E 014°37'8 8.3
2017-Feb-16 21:33N 53°33' E 014°36'10 9.6
2017-Feb-16 20:33N 53°42' E 014°29'81 8.1
2017-Feb-16 10:31N 54°42' E 012°56'1010.3
2017-Feb-16 09:33N 54°40' E 012°40'1010.3
2017-Feb-16 08:33N 54°34' E 012°25'1010.2
2017-Feb-16 07:33N 54°27' E 012°13'1110.8
2017-Feb-16 06:33N 54°25' E 011°54'11 9.9
2017-Feb-16 05:26N 54°28' E 011°36'9 9.8
2017-Feb-16 04:33N 54°31' E 011°22'10 9.6
2017-Feb-16 03:33N 54°35' E 011°07'9 9.3
2017-Feb-16 02:33N 54°34' E 010°51'9 9.3
2017-Feb-16 01:33N 54°33' E 010°35'37 4.6
2017-Feb-15 17:30N 54°17' E 009°38'16 7.8
2017-Feb-15 15:24N 54°05' E 009°19'7 8.4
2017-Feb-15 14:33N 53°58' E 009°15'6 5.8
2017-Feb-15 13:33N 53°54' E 009°09'2 1.6
2017-Feb-15 12:33N 53°53' E 009°06'1 0.9
2017-Feb-15 11:33N 53°53' E 009°05'6 5.8
2017-Feb-15 10:33N 53°51' E 008°56'8 7.6
2017-Feb-15 09:33N 53°52' E 008°43'8 7.9
2017-Feb-15 08:33N 53°58' E 008°33'10 8.8
2017-Feb-15 07:24N 53°59' E 008°16'9 9.3
2017-Feb-15 06:29N 53°59' E 008°02'141 9.8
2017-Feb-14 16:04N 53°02' E 004°25'5 9.7
2017-Feb-14 15:32N 52°57' E 004°21'9 9.1
2017-Feb-14 14:33N 52°49' E 004°15'9 8.7
2017-Feb-14 13:34N 52°43' E 004°05'19 8.4
2017-Feb-14 11:14N 52°29' E 003°42'76 9.6
2017-Feb-14 03:24N 51°33' E 002°21'910.6
2017-Feb-14 02:32N 51°25' E 002°13'1010.5
2017-Feb-14 01:33N 51°16' E 002°05'1010.2
2017-Feb-14 00:34N 51°09' E 001°53'9 9.3
2017-Feb-13 23:34N 51°02' E 001°42'8 8.0
2017-Feb-13 22:34N 50°57' E 001°34'  

Dump ship's entire track history